Wakefield, Mississippi
Current Conditions -  °F | °C
As of 5:15 PM on Monday 22 Dec 2014 (Local Time) from KUTA Reporting Station
Broken Clouds Broken Clouds  
Wind Chill: 55°   Ceiling: 2500
Heat Index: 55°   Visibility: 10mi
Dew Point: 54°   Wind: 14mph
Humidity: 94%   Direction: 140°SE
Pressure: 29.62"   Gusts: NA
Location:  34.6957°N, 90.0062°W
Report Text: KUTA 222315Z AUTO 14012KT 10SM SCT004 SCT011 BKN025 13/12 A2962 RMK AO2 LTG DSNT NE
Loading
Personal Weather Stations






























Interactive Weather Map New forecast layout! Learn more

10-Day Weather Forecast

Advertisements
Track Severe Weather on mobile